createdAt,value
2017-09-01T00:01:04.734Z,10.61
2017-09-01T00:02:26.904Z,10.45
2017-09-01T00:03:48.719Z,10.52
2017-09-01T00:05:10.527Z,10.53
2017-09-01T00:06:32.357Z,10.53
2017-09-01T00:07:53.865Z,10.59
2017-09-01T00:09:16.002Z,10.56
2017-09-01T00:10:38.165Z,10.61
2017-09-01T00:12:00.123Z,10.63
2017-09-01T00:13:21.625Z,10.6
2017-09-01T00:14:43.480Z,10.68
2017-09-01T00:16:06.222Z,10.63
2017-09-01T00:17:27.731Z,10.59
2017-09-01T00:18:49.551Z,10.56
2017-09-01T00:20:12.026Z,10.53
2017-09-01T00:21:34.421Z,10.61
2017-09-01T00:22:56.886Z,10.6
2017-09-01T00:24:18.385Z,10.56
2017-09-01T00:25:40.602Z,10.59
2017-09-01T00:27:03.041Z,10.63
2017-09-01T00:28:24.882Z,10.68
2017-09-01T00:29:46.713Z,10.66
2017-09-01T00:31:08.871Z,10.66
2017-09-01T00:32:31.154Z,10.63
2017-09-01T00:33:53.612Z,10.55
2017-09-01T00:35:15.751Z,10.64
2017-09-01T00:36:37.942Z,10.71
2017-09-01T00:38:00.083Z,10.66
2017-09-01T00:39:21.906Z,10.67
2017-09-01T00:40:43.718Z,10.64
2017-09-01T00:42:06.182Z,10.61
2017-09-01T00:43:28.407Z,10.67
2017-09-01T00:44:50.563Z,10.6
2017-09-01T00:46:12.807Z,10.63
2017-09-01T00:47:34.953Z,10.66
2017-09-01T00:48:57.407Z,10.64
2017-09-01T00:50:19.527Z,10.61
2017-09-01T00:51:41.713Z,10.45
2017-09-01T00:53:03.214Z,10.48
2017-09-01T00:54:25.992Z,10.55
2017-09-01T00:55:48.160Z,10.51
2017-09-01T00:57:10.635Z,10.44
2017-09-01T00:58:32.773Z,10.53
2017-09-01T00:59:55.154Z,10.45
2017-09-01T01:01:16.973Z,10.42
2017-09-01T01:02:39.459Z,10.4
2017-09-01T01:04:01.292Z,10.55
2017-09-01T01:05:23.370Z,10.47
2017-09-01T01:06:45.202Z,10.41
2017-09-01T01:08:06.744Z,10.41
2017-09-01T01:09:27.908Z,10.45
2017-09-01T01:10:49.675Z,10.41
2017-09-01T01:12:11.561Z,10.4
2017-09-01T01:13:33.062Z,10.41
2017-09-01T01:14:55.046Z,10.45
2017-09-01T01:16:16.840Z,10.41
2017-09-01T01:17:39.002Z,10.41
2017-09-01T01:18:59.861Z,10.45
2017-09-01T01:20:22.460Z,10.44
2017-09-01T01:21:44.014Z,10.4
2017-09-01T01:23:06.492Z,10.42
2017-09-01T01:24:28.324Z,10.38
2017-09-01T01:25:50.144Z,10.27
2017-09-01T01:27:12.998Z,10.22
2017-09-01T01:28:34.512Z,10.22
2017-09-01T01:29:56.024Z,10.17
2017-09-01T01:31:18.183Z,10.22
2017-09-01T01:32:40.784Z,10.26
2017-09-01T01:34:02.935Z,10.2
2017-09-01T01:35:24.763Z,10.29
2017-09-01T01:36:46.903Z,10.2
2017-09-01T01:38:09.017Z,10.12
2017-09-01T01:39:30.842Z,10.17
2017-09-01T01:40:52.831Z,10.18
2017-09-01T01:42:13.993Z,10.15
2017-09-01T01:43:36.402Z,10.15
2017-09-01T01:44:57.939Z,10.23
2017-09-01T01:46:19.123Z,10.12
2017-09-01T01:47:41.601Z,10.17
2017-09-01T01:49:04.194Z,10.14
2017-09-01T01:50:26.765Z,10.14
2017-09-01T01:51:48.571Z,10.05
2017-09-01T01:53:10.823Z,10.01
2017-09-01T01:54:32.362Z,10.07
2017-09-01T01:55:54.028Z,10.05
2017-09-01T01:57:15.540Z,10.09
2017-09-01T01:58:37.693Z,10.11
2017-09-01T02:00:00.572Z,10.09
2017-09-01T02:01:22.726Z,10.05
2017-09-01T02:02:44.353Z,9.94
2017-09-01T02:04:05.857Z,9.94
2017-09-01T02:05:28.563Z,9.97
2017-09-01T02:06:51.119Z,9.97
2017-09-01T02:08:13.294Z,9.93
2017-09-01T02:09:35.522Z,9.93
2017-09-01T02:10:57.593Z,9.99
2017-09-01T02:12:19.823Z,9.99
2017-09-01T02:13:41.961Z,10.01
2017-09-01T02:15:03.444Z,10.05
2017-09-01T02:16:25.882Z,9.99
2017-09-01T02:17:47.712Z,10.11
2017-09-01T02:19:10.018Z,10.01
2017-09-01T02:20:32.162Z,9.99
2017-09-01T02:21:54.564Z,9.96
2017-09-01T02:23:15.749Z,9.99
2017-09-01T02:24:37.892Z,10.09
2017-09-01T02:26:00.054Z,10.07
2017-09-01T02:27:22.984Z,10.12
2017-09-01T02:28:44.793Z,10.09
2017-09-01T02:30:06.633Z,10.14
2017-09-01T02:31:28.149Z,10.17
2017-09-01T02:32:50.531Z,10.14
2017-09-01T02:34:12.469Z,10.15
2017-09-01T02:35:33.983Z,10.09
2017-09-01T02:36:56.442Z,10.12
2017-09-01T02:38:18.574Z,10.11
2017-09-01T02:39:40.169Z,10.09
2017-09-01T02:41:02.034Z,9.99
2017-09-01T02:42:23.846Z,10.02
2017-09-01T02:43:45.973Z,9.97
2017-09-01T02:45:08.570Z,10.01
2017-09-01T02:46:30.722Z,10.01
2017-09-01T02:47:52.394Z,9.94
2017-09-01T02:49:15.263Z,9.97
2017-09-01T02:50:37.412Z,9.97
2017-09-01T02:51:59.282Z,9.9
2017-09-01T02:53:21.113Z,9.93
2017-09-01T02:54:42.861Z,9.97
2017-09-01T02:56:04.724Z,9.97
2017-09-01T02:57:26.954Z,9.97
2017-09-01T02:58:48.974Z,9.96
2017-09-01T03:00:10.988Z,9.99
2017-09-01T03:01:33.467Z,10.02
2017-09-01T03:02:55.415Z,9.93
2017-09-01T03:04:18.024Z,10.01
2017-09-01T03:05:40.080Z,10.05
2017-09-01T03:07:01.910Z,9.97
2017-09-01T03:08:24.065Z,9.94
2017-09-01T03:09:45.613Z,9.96
2017-09-01T03:11:08.383Z,10.01
2017-09-01T03:12:30.593Z,9.9
2017-09-01T03:13:52.451Z,9.9
2017-09-01T03:15:14.283Z,9.97
2017-09-01T03:16:36.713Z,9.93
2017-09-01T03:17:58.901Z,9.94
2017-09-01T03:19:20.433Z,9.84
2017-09-01T03:20:42.673Z,9.89
2017-09-01T03:22:04.174Z,9.86
2017-09-01T03:23:26.324Z,9.87
2017-09-01T03:24:48.185Z,9.83
2017-09-01T03:26:10.213Z,9.89
2017-09-01T03:27:32.292Z,9.86
2017-09-01T03:28:54.123Z,9.84
2017-09-01T03:30:15.661Z,9.87
2017-09-01T03:31:37.477Z,9.86
2017-09-01T03:32:59.414Z,9.75
2017-09-01T03:34:21.904Z,9.75
2017-09-01T03:35:43.724Z,9.64
2017-09-01T03:37:06.341Z,9.68
2017-09-01T03:38:28.499Z,9.81
2017-09-01T03:39:50.373Z,9.76
2017-09-01T03:41:11.959Z,9.81
2017-09-01T03:42:33.494Z,9.84
2017-09-01T03:43:56.240Z,9.81
2017-09-01T03:45:17.752Z,9.94
2017-09-01T03:46:39.891Z,9.91
2017-09-01T03:48:02.044Z,9.81
2017-09-01T03:49:24.644Z,9.86
2017-09-01T03:50:46.143Z,9.78
2017-09-01T03:52:07.973Z,9.83
2017-09-01T03:53:29.802Z,9.74
2017-09-01T03:54:52.264Z,9.79
2017-09-01T03:56:13.785Z,9.78
2017-09-01T03:57:35.612Z,9.81
2017-09-01T03:58:57.791Z,9.84
2017-09-01T04:00:19.589Z,9.83
2017-09-01T04:01:41.455Z,9.83
2017-09-01T04:03:03.946Z,9.72
2017-09-01T04:04:26.152Z,9.76
2017-09-01T04:05:48.322Z,9.76
2017-09-01T04:07:10.153Z,9.76
2017-09-01T04:08:31.982Z,9.72
2017-09-01T04:09:53.504Z,9.71
2017-09-01T04:11:15.964Z,9.66
2017-09-01T04:12:38.221Z,9.6
2017-09-01T04:14:00.046Z,9.6
2017-09-01T04:15:21.884Z,9.65
2017-09-01T04:16:44.084Z,9.6
2017-09-01T04:18:05.913Z,9.6
2017-09-01T04:19:27.723Z,9.58
2017-09-01T04:20:48.915Z,9.58
2017-09-01T04:22:11.684Z,9.6
2017-09-01T04:23:33.523Z,9.61
2017-09-01T04:24:55.641Z,9.6
2017-09-01T04:26:17.204Z,9.57
2017-09-01T04:27:40.170Z,9.42
2017-09-01T04:29:01.665Z,9.46
2017-09-01T04:30:23.523Z,9.47
2017-09-01T04:31:45.012Z,9.42
2017-09-01T04:33:07.534Z,9.46
2017-09-01T04:34:29.355Z,9.42
2017-09-01T04:35:51.844Z,9.38
2017-09-01T04:37:14.126Z,9.39
2017-09-01T04:38:37.364Z,9.4
2017-09-01T04:39:59.480Z,9.39
2017-09-01T04:41:21.435Z,9.4
2017-09-01T04:42:43.244Z,9.4
2017-09-01T04:44:05.742Z,9.42
2017-09-01T04:45:27.555Z,9.48
2017-09-01T04:46:49.394Z,9.47
2017-09-01T04:48:11.544Z,9.42
2017-09-01T04:49:34.033Z,9.43
2017-09-01T04:50:55.865Z,9.47
2017-09-01T04:52:17.045Z,9.57
2017-09-01T04:53:38.572Z,9.51
2017-09-01T04:55:00.753Z,9.51
2017-09-01T04:56:22.924Z,9.57
2017-09-01T04:57:44.771Z,9.64
2017-09-01T04:59:06.945Z,9.58
2017-09-01T05:00:29.713Z,9.71
2017-09-01T05:01:51.863Z,9.71
2017-09-01T05:03:13.724Z,9.64
2017-09-01T05:04:35.887Z,9.76
2017-09-01T05:05:57.986Z,9.79
2017-09-01T05:07:20.130Z,9.83
2017-09-01T05:08:41.949Z,9.87
2017-09-01T05:10:03.476Z,9.93
2017-09-01T05:11:26.294Z,10.02
2017-09-01T05:12:48.174Z,9.99
2017-09-01T05:14:09.698Z,10.05
2017-09-01T05:15:31.844Z,10.17
2017-09-01T05:16:54.016Z,10.17
2017-09-01T05:18:16.190Z,10.23
2017-09-01T05:19:37.734Z,10.22
2017-09-01T05:20:59.555Z,10.32
2017-09-01T05:22:21.944Z,10.41
2017-09-01T05:23:44.085Z,10.41
2017-09-01T05:25:06.012Z,10.42
2017-09-01T05:26:27.514Z,10.52
2017-09-01T05:28:04.233Z,10.61
2017-09-01T05:29:26.387Z,10.68
2017-09-01T05:30:47.897Z,10.67
2017-09-01T05:32:10.159Z,10.67
2017-09-01T05:33:32.653Z,10.79
2017-09-01T05:34:54.469Z,10.84
2017-09-01T05:36:15.625Z,10.94
2017-09-01T05:37:38.134Z,11.09
2017-09-01T05:39:00.880Z,11.27
2017-09-01T05:40:23.050Z,11.35
2017-09-01T05:41:44.444Z,11.62
2017-09-01T05:43:06.933Z,12.71
2017-09-01T05:44:29.114Z,14.06
2017-09-01T05:45:50.281Z,15.34
2017-09-01T05:47:12.434Z,16.42
2017-09-01T05:48:34.594Z,17.4
2017-09-01T05:49:57.403Z,18.35
2017-09-01T05:51:19.577Z,19.22
2017-09-01T05:52:41.374Z,20.01
2017-09-01T05:54:02.577Z,20.59
2017-09-01T05:55:24.634Z,21.22
2017-09-01T05:56:46.773Z,21.65
2017-09-01T05:58:09.061Z,21.96
2017-09-01T05:59:30.880Z,22.33
2017-09-01T06:00:53.420Z,22.65
2017-09-01T06:02:15.584Z,23.04
2017-09-01T06:03:38.063Z,23.43
2017-09-01T06:05:00.216Z,23.66
2017-09-01T06:06:22.676Z,24
2017-09-01T06:07:45.162Z,24.21
2017-09-01T06:09:07.314Z,24.35
2017-09-01T06:10:29.204Z,24.58
2017-09-01T06:11:51.355Z,24.81
2017-09-01T06:13:13.503Z,25.05
2017-09-01T06:14:35.093Z,25.18
2017-09-01T06:15:56.944Z,25.42
2017-09-01T06:17:19.344Z,25.6
2017-09-01T06:18:41.524Z,25.67
2017-09-01T06:20:03.038Z,25.88
2017-09-01T06:21:25.208Z,26.1
2017-09-01T06:22:47.396Z,26.2
2017-09-01T06:24:09.557Z,26.48
2017-09-01T06:25:32.100Z,26.65
2017-09-01T06:26:53.302Z,26.77
2017-09-01T06:28:15.444Z,26.84
2017-09-01T06:29:36.969Z,27.07
2017-09-01T06:30:59.124Z,27.27
2017-09-01T06:32:20.964Z,27.28
2017-09-01T06:33:43.068Z,27.57
2017-09-01T06:35:05.221Z,27.7
2017-09-01T06:36:27.386Z,28
2017-09-01T06:37:48.891Z,28.15
2017-09-01T06:39:11.696Z,28.37
2017-09-01T06:40:33.222Z,28.51
2017-09-01T06:41:55.462Z,28.67
2017-09-01T06:43:17.634Z,28.92
2017-09-01T06:44:39.773Z,29.19
2017-09-01T06:46:01.654Z,29.04
2017-09-01T06:47:23.177Z,29.27
2017-09-01T06:48:45.334Z,29.64
2017-09-01T06:50:07.102Z,29.94
2017-09-01T06:51:28.631Z,29.98
2017-09-01T06:52:50.790Z,30.16
2017-09-01T06:54:12.653Z,30.45
2017-09-01T06:55:35.120Z,30.61
2017-09-01T06:56:56.732Z,30.8
2017-09-01T06:58:18.561Z,30.82
2017-09-01T06:59:39.764Z,30.89
2017-09-01T07:01:01.933Z,31.09
2017-09-01T07:02:24.164Z,31.29
2017-09-01T07:03:46.525Z,31.41
2017-09-01T07:05:08.691Z,31.46
2017-09-01T07:06:30.823Z,31.61
2017-09-01T07:07:52.983Z,31.76
2017-09-01T07:09:15.549Z,31.76
2017-09-01T07:10:37.153Z,31.88
2017-09-01T07:11:59.965Z,31.88
2017-09-01T07:13:22.444Z,31.26
2017-09-01T07:14:44.604Z,31.25
2017-09-01T07:16:05.824Z,31.38
2017-09-01T07:17:29.824Z,31.58
2017-09-01T07:18:52.314Z,31.62
2017-09-01T07:20:13.827Z,31.75
2017-09-01T07:21:35.987Z,32.04
2017-09-01T07:22:57.764Z,32.04
2017-09-01T07:24:20.242Z,32.13
2017-09-01T07:25:42.073Z,32.18
2017-09-01T07:27:03.933Z,32.18
2017-09-01T07:28:26.091Z,32.13
2017-09-01T07:29:48.372Z,32.11
2017-09-01T07:31:10.514Z,32.03
2017-09-01T07:32:33.033Z,31.88
2017-09-01T07:33:55.506Z,31.86
2017-09-01T07:35:17.354Z,31.73
2017-09-01T07:36:39.820Z,31.75
2017-09-01T07:38:01.093Z,31.57
2017-09-01T07:39:23.363Z,31.13
2017-09-01T07:40:45.193Z,30.62
2017-09-01T07:42:07.509Z,30.69
2017-09-01T07:43:29.014Z,30.89
2017-09-01T07:44:51.270Z,30.98
2017-09-01T07:46:12.800Z,30.97
2017-09-01T07:47:34.643Z,30.73
2017-09-01T07:48:56.481Z,29.68
2017-09-01T07:50:18.665Z,28.51
2017-09-01T07:51:40.183Z,27.09
2017-09-01T07:53:02.665Z,25.77
2017-09-01T07:54:25.154Z,24.55
2017-09-01T07:55:47.984Z,23.31
2017-09-01T07:57:09.826Z,22.51
2017-09-01T07:58:32.023Z,21.99
2017-09-01T07:59:53.852Z,21.4
2017-09-01T08:01:16.369Z,21.14
2017-09-01T08:02:38.223Z,20.88
2017-09-01T08:04:00.815Z,20.61
2017-09-01T08:05:23.006Z,20.29
2017-09-01T08:06:45.844Z,20.08
2017-09-01T08:08:07.684Z,20.02
2017-09-01T08:09:29.524Z,19.8
2017-09-01T08:10:51.363Z,19.83
2017-09-01T08:12:13.688Z,19.62
2017-09-01T08:13:35.582Z,19.54
2017-09-01T08:14:57.732Z,19.47
2017-09-01T08:16:19.684Z,19.37
2017-09-01T08:17:42.204Z,19.4
2017-09-01T08:19:04.343Z,19.33
2017-09-01T08:20:26.222Z,19.26
2017-09-01T08:21:47.744Z,19.26
2017-09-01T08:23:10.604Z,19.23
2017-09-01T08:24:32.771Z,19.31
2017-09-01T08:25:54.976Z,19.37
2017-09-01T08:27:17.154Z,19.37
2017-09-01T08:28:39.984Z,19.31
2017-09-01T08:30:02.283Z,19.37
2017-09-01T08:31:24.565Z,19.32
2017-09-01T08:32:46.724Z,19.36
2017-09-01T08:34:08.893Z,19.32
2017-09-01T08:35:30.725Z,19.14
2017-09-01T08:36:53.201Z,19.13
2017-09-01T08:38:15.410Z,19.16
2017-09-01T08:39:37.855Z,19.07
2017-09-01T08:41:00.033Z,19.19
2017-09-01T08:42:21.555Z,19.25
2017-09-01T08:43:44.044Z,19.16
2017-09-01T08:45:06.834Z,19.1
2017-09-01T08:46:28.984Z,19.11
2017-09-01T08:47:51.157Z,19.33
2017-09-01T08:49:13.364Z,19.36
2017-09-01T08:50:35.681Z,19.36
2017-09-01T08:51:58.205Z,19.33
2017-09-01T08:53:20.374Z,19.14
2017-09-01T08:54:42.215Z,19.16
2017-09-01T08:56:04.638Z,19.37
2017-09-01T08:57:26.496Z,19.39
2017-09-01T08:58:48.654Z,19.29
2017-09-01T09:00:10.504Z,19.4
2017-09-01T09:01:32.686Z,19.39
2017-09-01T09:02:55.505Z,19.44
2017-09-01T09:04:17.655Z,19.29
2017-09-01T09:05:40.134Z,19.28
2017-09-01T09:07:01.994Z,19.33
2017-09-01T09:08:24.144Z,19.44
2017-09-01T09:09:46.685Z,19.58
2017-09-01T09:11:08.824Z,19.66
2017-09-01T09:12:30.709Z,19.81
2017-09-01T09:13:52.212Z,19.8
2017-09-01T09:15:14.427Z,19.96
2017-09-01T09:16:36.055Z,20.05
2017-09-01T09:17:58.975Z,20.06
2017-09-01T09:19:20.866Z,20.06
2017-09-01T09:20:42.715Z,20.08
2017-09-01T09:22:05.175Z,19.98
2017-09-01T09:23:27.502Z,20.14
2017-09-01T09:24:49.326Z,20.06
2017-09-01T09:26:11.155Z,20.11
2017-09-01T09:27:33.304Z,20.32
2017-09-01T09:28:55.105Z,20.47
2017-09-01T09:30:16.615Z,20.59
2017-09-01T09:31:38.921Z,20.5
2017-09-01T09:33:00.862Z,20.43
2017-09-01T09:34:23.042Z,20.62
2017-09-01T09:35:44.548Z,20.61
2017-09-01T09:37:06.402Z,20.84
2017-09-01T09:38:28.555Z,20.77
2017-09-01T09:39:51.065Z,20.85
2017-09-01T09:41:13.218Z,20.85
2017-09-01T09:42:35.064Z,20.84
2017-09-01T09:43:56.644Z,20.91
2017-09-01T09:45:19.470Z,20.98
2017-09-01T09:46:41.356Z,21.25
2017-09-01T09:48:03.195Z,21.29
2017-09-01T09:49:25.037Z,21.32
2017-09-01T09:50:47.274Z,21.43
2017-09-01T09:52:09.145Z,21.68
2017-09-01T09:53:31.648Z,21.88
2017-09-01T09:54:54.305Z,21.75
2017-09-01T09:56:16.495Z,21.67
2017-09-01T09:57:38.015Z,21.8
2017-09-01T09:58:59.907Z,21.83
2017-09-01T10:00:22.485Z,22.03
2017-09-01T10:01:44.508Z,22.02
2017-09-01T10:03:07.048Z,22.14
2017-09-01T10:04:29.317Z,22.21
2017-09-01T10:05:51.237Z,22.39
2017-09-01T10:07:14.135Z,22.42
2017-09-01T10:08:36.296Z,22.27
2017-09-01T10:09:58.490Z,22.03
2017-09-01T10:11:20.973Z,22.21
2017-09-01T10:12:58.415Z,22.54
2017-09-01T10:14:20.494Z,22.49
2017-09-01T10:15:42.671Z,22.61
2017-09-01T10:17:04.846Z,22.39
2017-09-01T10:18:27.265Z,22.02
2017-09-01T10:19:49.475Z,21.71
2017-09-01T10:21:10.983Z,22.17
2017-09-01T10:22:32.503Z,22.28
2017-09-01T10:23:54.892Z,22.54
2017-09-01T10:25:17.384Z,22.52
2017-09-01T10:26:39.291Z,22.54
2017-09-01T10:28:00.834Z,22.64
2017-09-01T10:29:22.964Z,22.72
2017-09-01T10:30:45.136Z,22.76
2017-09-01T10:32:07.633Z,22.73
2017-09-01T10:33:30.117Z,22.7
2017-09-01T10:34:52.942Z,22.88
2017-09-01T10:36:14.451Z,23.12
2017-09-01T10:37:36.312Z,23.27
2017-09-01T10:38:58.490Z,23.36
2017-09-01T10:40:20.303Z,23.31
2017-09-01T10:41:42.504Z,23.1
2017-09-01T10:43:04.436Z,22.54
2017-09-01T10:44:25.973Z,21.92
2017-09-01T10:45:48.768Z,22.02
2017-09-01T10:47:10.953Z,21.83
2017-09-01T10:48:33.361Z,21.21
2017-09-01T10:49:55.896Z,21.12
2017-09-01T10:51:18.741Z,21.37
2017-09-01T10:52:40.944Z,21.53
2017-09-01T10:54:02.803Z,21.59
2017-09-01T10:55:25.333Z,21.65
2017-09-01T10:56:47.754Z,21.68
2017-09-01T10:58:09.902Z,21.75
2017-09-01T10:59:31.743Z,21.98
2017-09-01T11:00:53.265Z,22.2
2017-09-01T11:02:15.677Z,22.62
2017-09-01T11:03:37.830Z,22.9
2017-09-01T11:04:59.686Z,22.6
2017-09-01T11:06:22.195Z,22.58
2017-09-01T11:07:44.357Z,22.79
2017-09-01T11:09:06.233Z,23
2017-09-01T11:10:28.402Z,23.2
2017-09-01T11:11:50.885Z,23.31
2017-09-01T11:13:13.402Z,23.31
2017-09-01T11:14:35.574Z,23.48
2017-09-01T11:15:57.761Z,23.38
2017-09-01T11:17:19.936Z,23.48
2017-09-01T11:18:42.779Z,23.76
2017-09-01T11:20:04.612Z,23.84
2017-09-01T11:21:26.772Z,23.79
2017-09-01T11:22:49.253Z,23.7
2017-09-01T11:24:12.086Z,23.58
2017-09-01T11:25:34.344Z,23.2
2017-09-01T11:26:56.513Z,22.91
2017-09-01T11:28:18.696Z,22.68
2017-09-01T11:29:41.213Z,22.57
2017-09-01T11:31:03.375Z,22.36
2017-09-01T11:32:25.562Z,22.39
2017-09-01T11:33:47.412Z,22.52
2017-09-01T11:35:09.181Z,22.36
2017-09-01T11:36:31.802Z,22.33
2017-09-01T11:37:53.650Z,22.25
2017-09-01T11:39:15.266Z,22.18
2017-09-01T11:40:38.174Z,22.3
2017-09-01T11:41:59.702Z,22.43
2017-09-01T11:43:22.193Z,22.27
2017-09-01T11:44:44.451Z,22.54
2017-09-01T11:46:07.015Z,22.62
2017-09-01T11:47:29.590Z,22.88
2017-09-01T11:48:51.742Z,23.1
2017-09-01T11:50:13.910Z,23.02
2017-09-01T11:51:36.423Z,22.82
2017-09-01T11:52:58.632Z,22.92
2017-09-01T11:54:20.793Z,23.12
2017-09-01T11:55:43.447Z,23.16
2017-09-01T11:57:05.343Z,23.28
2017-09-01T11:58:27.243Z,23.27
2017-09-01T11:59:49.553Z,23.31
2017-09-01T12:01:11.383Z,23.36
2017-09-01T12:02:33.905Z,23.28
2017-09-01T12:03:56.412Z,23.55
2017-09-01T12:05:17.916Z,23.76
2017-09-01T12:06:40.080Z,24.28
2017-09-01T12:08:02.266Z,24.57
2017-09-01T12:09:24.126Z,24.47
2017-09-01T12:10:45.997Z,24.34
2017-09-01T12:12:08.214Z,24.15
2017-09-01T12:13:31.083Z,24.09
2017-09-01T12:14:53.589Z,23.91
2017-09-01T12:16:15.744Z,24.16
2017-09-01T12:17:37.593Z,24.13
2017-09-01T12:18:59.680Z,24.21
2017-09-01T12:20:21.832Z,24.24
2017-09-01T12:21:44.108Z,24.31
2017-09-01T12:23:06.610Z,24.4
2017-09-01T12:24:29.363Z,24.18
2017-09-01T12:25:51.694Z,23.7
2017-09-01T12:27:14.202Z,23.55
2017-09-01T12:28:36.376Z,23.54
2017-09-01T12:29:58.903Z,23.38
2017-09-01T12:31:20.750Z,23.27
2017-09-01T12:32:42.986Z,23.43
2017-09-01T12:34:05.046Z,23.31
2017-09-01T12:35:27.263Z,23.19
2017-09-01T12:36:49.425Z,22.58
2017-09-01T12:38:11.925Z,22.42
2017-09-01T12:39:34.434Z,22.49
2017-09-01T12:40:56.861Z,22.57
2017-09-01T12:42:19.530Z,22.55
2017-09-01T12:43:42.034Z,22.77
2017-09-01T12:45:04.223Z,22.9
2017-09-01T12:46:26.886Z,22.77
2017-09-01T12:47:49.395Z,22.97
2017-09-01T12:49:11.583Z,23.01
2017-09-01T12:50:34.080Z,23.1
2017-09-01T12:51:56.492Z,22.98
2017-09-01T12:53:18.463Z,22.73
2017-09-01T12:54:40.023Z,22.76
2017-09-01T12:56:02.223Z,22.8
2017-09-01T12:57:24.974Z,22.9
2017-09-01T12:58:47.421Z,23.09
2017-09-01T13:00:08.628Z,23.05
2017-09-01T13:01:31.256Z,23.02
2017-09-01T13:02:54.062Z,22.91
2017-09-01T13:04:16.246Z,22.68
2017-09-01T13:05:38.774Z,22.6
2017-09-01T13:07:00.959Z,22.61
2017-09-01T13:08:23.456Z,22.54
2017-09-01T13:09:45.635Z,22.57
2017-09-01T13:11:07.823Z,22.52
2017-09-01T13:12:30.153Z,22.28
2017-09-01T13:13:52.995Z,22.43
2017-09-01T13:15:15.312Z,22.61
2017-09-01T13:16:37.535Z,22.82
2017-09-01T13:17:59.392Z,23
2017-09-01T13:19:21.604Z,23.2
2017-09-01T13:20:44.212Z,23.02
2017-09-01T13:22:06.703Z,22.92
2017-09-01T13:23:28.966Z,22.91
2017-09-01T13:24:51.824Z,22.64
2017-09-01T13:26:13.691Z,22.09
2017-09-01T13:27:36.195Z,21.83
2017-09-01T13:28:58.701Z,21.77
2017-09-01T13:30:21.558Z,21.83
2017-09-01T13:31:44.054Z,21.8
2017-09-01T13:33:06.548Z,21.67
2017-09-01T13:34:29.106Z,21.8
2017-09-01T13:35:52.085Z,22.03
2017-09-01T13:37:13.910Z,22.25
2017-09-01T13:38:36.422Z,22.14
2017-09-01T13:39:58.900Z,22.21
2017-09-01T13:41:21.453Z,22.35
2017-09-01T13:42:43.641Z,22.4
2017-09-01T13:44:05.523Z,22.45
2017-09-01T13:45:27.692Z,22.37
2017-09-01T13:46:49.903Z,22.43
2017-09-01T13:48:12.215Z,22.27
2017-09-01T13:49:34.454Z,22.3
2017-09-01T13:50:56.942Z,22.17
2017-09-01T13:52:19.193Z,21.61
2017-09-01T13:53:41.672Z,21.68
2017-09-01T13:55:03.572Z,21.8
2017-09-01T13:56:26.263Z,21.83
2017-09-01T13:57:49.109Z,21.74
2017-09-01T13:59:11.372Z,21.79
2017-09-01T14:00:33.574Z,21.98
2017-09-01T14:01:56.084Z,21.83
2017-09-01T14:03:18.470Z,21.74
2017-09-01T14:04:41.026Z,21.56
2017-09-01T14:06:03.192Z,21.5
2017-09-01T14:07:25.375Z,21.69
2017-09-01T14:08:47.822Z,21.64
2017-09-01T14:10:10.464Z,21.79
2017-09-01T14:11:32.961Z,21.61
2017-09-01T14:12:55.609Z,21.56
2017-09-01T14:14:18.272Z,21.56
2017-09-01T14:15:39.793Z,21.53
2017-09-01T14:17:02.273Z,21.69
2017-09-01T14:18:24.773Z,21.77
2017-09-01T14:19:47.585Z,21.82
2017-09-01T14:21:09.444Z,21.82
2017-09-01T14:22:31.634Z,21.82
2017-09-01T14:23:53.510Z,21.91
2017-09-01T14:25:16.388Z,21.98
2017-09-01T14:26:38.861Z,21.92
2017-09-01T14:28:01.043Z,21.98
2017-09-01T14:29:23.604Z,21.9
2017-09-01T14:30:46.444Z,21.92
2017-09-01T14:32:08.664Z,22.02
2017-09-01T14:33:30.939Z,22.03
2017-09-01T14:34:52.804Z,22.03
2017-09-01T14:36:14.684Z,22.14
2017-09-01T14:37:37.193Z,22.03
2017-09-01T14:38:59.692Z,22.05
2017-09-01T14:40:21.868Z,22.21
2017-09-01T14:41:44.433Z,22.25
2017-09-01T14:43:06.644Z,22.02
2017-09-01T14:44:28.912Z,21.82
2017-09-01T14:45:51.088Z,21.4
2017-09-01T14:47:13.865Z,21.32
2017-09-01T14:48:36.383Z,21.44
2017-09-01T14:49:58.229Z,21.65
2017-09-01T14:51:20.121Z,21.69
2017-09-01T14:52:42.384Z,21.53
2017-09-01T14:54:04.893Z,21.38
2017-09-01T14:55:26.732Z,21.28
2017-09-01T14:56:48.912Z,21.14
2017-09-01T14:58:11.653Z,20.74
2017-09-01T14:59:33.594Z,20.88
2017-09-01T15:00:55.494Z,20.8
2017-09-01T15:02:17.976Z,20.84
2017-09-01T15:03:40.174Z,20.85
2017-09-01T15:05:02.395Z,20.88
2017-09-01T15:06:24.873Z,21.04
2017-09-01T15:07:46.776Z,21.14
2017-09-01T15:09:09.194Z,21.21
2017-09-01T15:10:31.765Z,21.12
2017-09-01T15:11:54.263Z,21.13
2017-09-01T15:13:16.434Z,21.13
2017-09-01T15:14:38.921Z,20.88
2017-09-01T15:16:01.554Z,20.47
2017-09-01T15:17:23.715Z,20.52
2017-09-01T15:18:46.234Z,20.69
2017-09-01T15:20:08.984Z,20.67
2017-09-01T15:21:30.513Z,20.77
2017-09-01T15:22:53.015Z,20.61
2017-09-01T15:24:15.323Z,20.33
2017-09-01T15:25:37.513Z,20.39
2017-09-01T15:26:59.675Z,20.2
2017-09-01T15:28:21.900Z,20.36
2017-09-01T15:29:44.293Z,20.43
2017-09-01T15:31:06.593Z,20.66
2017-09-01T15:32:28.772Z,20.73
2017-09-01T15:33:51.433Z,20.85
2017-09-01T15:35:13.595Z,20.87
2017-09-01T15:36:36.370Z,20.89
2017-09-01T15:37:58.566Z,20.87
2017-09-01T15:39:20.745Z,20.87
2017-09-01T15:40:42.656Z,20.62
2017-09-01T15:42:05.293Z,20.77
2017-09-01T15:43:27.104Z,20.79
2017-09-01T15:44:48.816Z,20.99
2017-09-01T15:46:11.056Z,20.69
2017-09-01T15:47:33.577Z,20.59
2017-09-01T15:48:55.997Z,20.88
2017-09-01T15:50:18.166Z,20.87
2017-09-01T15:51:40.818Z,20.99
2017-09-01T15:53:03.343Z,21.07
2017-09-01T15:54:25.541Z,21.25
2017-09-01T15:55:47.404Z,21.17
2017-09-01T15:57:09.578Z,21.44
2017-09-01T15:58:32.147Z,21.43
2017-09-01T15:59:54.313Z,21.37
2017-09-01T16:01:16.601Z,21.32
2017-09-01T16:02:39.105Z,21.52
2017-09-01T16:04:01.293Z,21.59
2017-09-01T16:05:23.812Z,21.71
2017-09-01T16:06:46.163Z,21.83
2017-09-01T16:08:08.013Z,21.9
2017-09-01T16:09:30.103Z,21.84
2017-09-01T16:10:52.265Z,21.8
2017-09-01T16:12:14.196Z,21.59
2017-09-01T16:13:36.413Z,21.21
2017-09-01T16:14:58.550Z,21.19
2017-09-01T16:16:20.722Z,20.69
2017-09-01T16:17:42.903Z,20.32
2017-09-01T16:19:05.141Z,20.35
2017-09-01T16:20:27.970Z,20.18
2017-09-01T16:21:50.147Z,20.11
2017-09-01T16:23:12.746Z,19.98
2017-09-01T16:24:34.773Z,19.68
2017-09-01T16:25:57.447Z,19.56
2017-09-01T16:27:19.954Z,19.43
2017-09-01T16:28:41.807Z,19.36
2017-09-01T16:30:03.353Z,19.29
2017-09-01T16:31:25.824Z,19.28
2017-09-01T16:32:48.415Z,19.11
2017-09-01T16:34:10.586Z,19.14
2017-09-01T16:35:32.793Z,19.16
2017-09-01T16:36:55.349Z,19.08
2017-09-01T16:38:17.192Z,19.07
2017-09-01T16:39:39.354Z,19.08
2017-09-01T16:41:01.567Z,19.08
2017-09-01T16:42:24.494Z,18.98
2017-09-01T16:43:46.669Z,18.88
2017-09-01T16:45:09.282Z,18.87
2017-09-01T16:46:31.461Z,18.81
2017-09-01T16:47:53.985Z,18.81
2017-09-01T16:49:16.234Z,18.75
2017-09-01T16:50:38.086Z,18.6
2017-09-01T16:52:00.255Z,18.65
2017-09-01T16:53:22.854Z,18.57
2017-09-01T16:54:45.378Z,18.45
2017-09-01T16:56:07.575Z,18.45
2017-09-01T16:57:30.082Z,18.48
2017-09-01T16:58:52.305Z,18.37
2017-09-01T17:00:14.482Z,18.42
2017-09-01T17:01:36.748Z,18.32
2017-09-01T17:02:59.353Z,18.35
2017-09-01T17:04:21.854Z,18.27
2017-09-01T17:05:43.433Z,18.25
2017-09-01T17:07:05.611Z,18.2
2017-09-01T17:08:27.772Z,18.15
2017-09-01T17:09:49.872Z,18.14
2017-09-01T17:11:12.375Z,18.27
2017-09-01T17:12:34.869Z,18.15
2017-09-01T17:13:57.363Z,18.27
2017-09-01T17:15:19.943Z,18.27
2017-09-01T17:16:42.183Z,18.15
2017-09-01T17:18:04.144Z,18.12
2017-09-01T17:19:26.629Z,18.08
2017-09-01T17:20:49.318Z,18.03
2017-09-01T17:22:11.599Z,17.9
2017-09-01T17:23:34.191Z,17.96
2017-09-01T17:24:56.355Z,17.84
2017-09-01T17:26:18.171Z,17.77
2017-09-01T17:27:40.322Z,17.59
2017-09-01T17:29:02.687Z,17.56
2017-09-01T17:30:24.872Z,17.46
2017-09-01T17:31:47.304Z,17.31
2017-09-01T17:33:09.803Z,17.25
2017-09-01T17:34:32.070Z,17.23
2017-09-01T17:35:54.243Z,17.12
2017-09-01T17:37:16.378Z,16.98
2017-09-01T17:38:38.895Z,16.96
2017-09-01T17:40:01.411Z,16.93
2017-09-01T17:41:23.714Z,16.76
2017-09-01T17:42:46.573Z,16.75
2017-09-01T17:44:09.069Z,16.52
2017-09-01T17:45:30.953Z,16.46
2017-09-01T17:46:53.447Z,16.38